PWSweather.com
Personal Weather Stations
Station Observations
MAKAWAOWX1
Up Country Maui, Makawao, HI 96768

Up Country MauiMakawao, HI 96768

Lat: 20.856944, Lon: -156.3149667

Elevation: 1500

Station Type: Davis Vantage Pro

www.dwayneyamato@hawaiiantel.net

High Low Average
Temperature 74.0°F23.3°C 58.4°F14.7°C 66.2°F19.0°C
Dew Point 66.8°F19.3°C 54.5°F12.5°C 61.0°F16.1°C
Winds 10.4 mph 16.7 kmh Calm Calm 2.0 mph E3.2 kmh E
Wind Gusts 13.8 mph22.2 kmh -- 4.0 mph6.4 kmh
Humidity 94% 68% 83%
Pressure 30.13 in1020.3 mb 30.03 in1016.9 mb -
Precipitation 0.01 in0.3 mm - -
Hour Temp Dew Point Humidity Winds Wind Gusts Pressure Precip Precip Rate Daily Precip Total
12:00 AM 64.8°F18.2°C 58.8°F14.9°C 81% 5.8 mph E9.3 kmh E 6.9 mph11.1 kmh 30.10 in1019.3 mb - 0.00 in0.0 mm 0.00 in0.0 mm
12:10 AM 64.9°F18.3°C 58.2°F14.6°C 79% 10.4 mph ESE16.7 kmh ESE 13.8 mph22.2 kmh 30.10 in1019.3 mb - 0.00 in0.0 mm 0.00 in0.0 mm
12:20 AM 65.4°F18.6°C 58.3°F14.6°C 78% 1.2 mph SE1.9 kmh SE -- 30.09 in1019.0 mb - 0.00 in0.0 mm 0.00 in0.0 mm
12:30 AM 65.3°F18.5°C 58.3°F14.6°C 78% 4.6 mph ESE7.4 kmh ESE 11.5 mph18.5 kmh 30.09 in1019.0 mb - 0.00 in0.0 mm 0.00 in0.0 mm
12:40 AM 65.2°F18.4°C 58.9°F14.9°C 80% 3.5 mph ESE5.6 kmh ESE 9.2 mph14.8 kmh 30.09 in1019.0 mb - 0.00 in0.0 mm 0.00 in0.0 mm
12:50 AM 65.3°F18.5°C 58.6°F14.8°C 79% 5.8 mph SE9.3 kmh SE 10.4 mph16.7 kmh 30.09 in1019.0 mb - 0.00 in0.0 mm 0.00 in0.0 mm
01:00 AM 65.3°F18.5°C 58.6°F14.8°C 79% 4.6 mph ESE7.4 kmh ESE 6.9 mph11.1 kmh 30.08 in1018.6 mb - 0.00 in0.0 mm 0.00 in0.0 mm
01:10 AM 65.2°F18.4°C 59.6°F15.3°C 82% 1.2 mph E1.9 kmh E -- 30.08 in1018.6 mb - 0.00 in0.0 mm 0.00 in0.0 mm
01:20 AM 64.7°F18.2°C 59.4°F15.2°C 83% 3.5 mph ESE5.6 kmh ESE 9.2 mph14.8 kmh 30.07 in1018.3 mb - 0.00 in0.0 mm 0.00 in0.0 mm
01:30 AM 64.4°F18.0°C 59.1°F15.1°C 83% 3.5 mph SE5.6 kmh SE 9.2 mph14.8 kmh 30.06 in1017.9 mb - 0.00 in0.0 mm 0.00 in0.0 mm
01:40 AM 64.5°F18.1°C 58.9°F14.9°C 82% 3.5 mph SE5.6 kmh SE 2.3 mph3.7 kmh 30.06 in1017.9 mb - 0.00 in0.0 mm 0.00 in0.0 mm
01:50 AM 64.6°F18.1°C 59.3°F15.2°C 83% 4.6 mph E7.4 kmh E 5.8 mph9.3 kmh 30.05 in1017.6 mb - 0.00 in0.0 mm 0.00 in0.0 mm
02:00 AM 64.4°F18.0°C 59.1°F15.1°C 83% 6.9 mph ESE11.1 kmh ESE 11.5 mph18.5 kmh 30.05 in1017.6 mb - 0.00 in0.0 mm 0.00 in0.0 mm
02:10 AM 64.7°F18.2°C 58.7°F14.8°C 81% 1.2 mph S1.9 kmh S -- 30.06 in1017.9 mb - 0.00 in0.0 mm 0.00 in0.0 mm
02:20 AM 65.0°F18.3°C 58.3°F14.6°C 79% 1.2 mph E1.9 kmh E 5.8 mph9.3 kmh 30.05 in1017.6 mb - 0.00 in0.0 mm 0.00 in0.0 mm
02:30 AM 64.8°F18.2°C 58.8°F14.9°C 81% Calm Calm -- 30.05 in1017.6 mb - 0.00 in0.0 mm 0.00 in0.0 mm
02:40 AM 64.1°F17.8°C 58.1°F14.5°C 81% 2.3 mph E3.7 kmh E 9.2 mph14.8 kmh 30.05 in1017.6 mb - 0.00 in0.0 mm 0.00 in0.0 mm
02:50 AM 63.7°F17.6°C 57.7°F14.3°C 81% Calm Calm -- 30.05 in1017.6 mb - 0.00 in0.0 mm 0.00 in0.0 mm
03:00 AM 63.7°F17.6°C 58.7°F14.8°C 84% 1.2 mph ESE1.9 kmh ESE 5.8 mph9.3 kmh 30.05 in1017.6 mb - 0.00 in0.0 mm 0.00 in0.0 mm
03:10 AM 63.7°F17.6°C 58.8°F14.9°C 84% Calm Calm 3.5 mph5.6 kmh 30.05 in1017.6 mb - 0.00 in0.0 mm 0.00 in0.0 mm
03:20 AM 63.1°F17.3°C 58.6°F14.8°C 85% Calm Calm -- 30.05 in1017.6 mb - 0.00 in0.0 mm 0.00 in0.0 mm
03:30 AM 62.4°F16.9°C 57.5°F14.2°C 84% Calm Calm -- 30.06 in1017.9 mb - 0.00 in0.0 mm 0.00 in0.0 mm
03:40 AM 61.6°F16.4°C 56.4°F13.6°C 83% Calm Calm -- 30.06 in1017.9 mb - 0.00 in0.0 mm 0.00 in0.0 mm
03:50 AM 61.2°F16.2°C 56.0°F13.3°C 83% Calm Calm -- 30.07 in1018.3 mb - 0.00 in0.0 mm 0.00 in0.0 mm
04:00 AM 60.8°F16.0°C 55.9°F13.3°C 84% Calm Calm -- 30.07 in1018.3 mb - 0.00 in0.0 mm 0.00 in0.0 mm
04:10 AM 60.8°F16.0°C 56.3°F13.5°C 85% Calm Calm -- 30.07 in1018.3 mb - 0.00 in0.0 mm 0.00 in0.0 mm
04:20 AM 60.7°F15.9°C 56.2°F13.4°C 85% Calm Calm -- 30.07 in1018.3 mb - 0.00 in0.0 mm 0.00 in0.0 mm
04:30 AM 60.4°F15.8°C 55.5°F13.1°C 84% Calm Calm -- 30.06 in1017.9 mb - 0.00 in0.0 mm 0.00 in0.0 mm
04:40 AM 59.9°F15.5°C 55.4°F13.0°C 85% Calm Calm -- 30.06 in1017.9 mb - 0.00 in0.0 mm 0.00 in0.0 mm
04:50 AM 59.6°F15.3°C 55.7°F13.2°C 87% Calm Calm -- 30.07 in1018.3 mb - 0.00 in0.0 mm 0.00 in0.0 mm
05:00 AM 59.3°F15.2°C 55.7°F13.2°C 88% Calm Calm 3.5 mph5.6 kmh 30.07 in1018.3 mb - 0.00 in0.0 mm 0.00 in0.0 mm
05:10 AM 59.4°F15.2°C 55.5°F13.1°C 87% Calm Calm -- 30.07 in1018.3 mb - 0.00 in0.0 mm 0.00 in0.0 mm
05:20 AM 59.3°F15.2°C 55.4°F13.0°C 87% Calm Calm -- 30.07 in1018.3 mb - 0.00 in0.0 mm 0.00 in0.0 mm
05:30 AM 59.1°F15.1°C 55.2°F12.9°C 87% Calm Calm -- 30.07 in1018.3 mb - 0.00 in0.0 mm 0.00 in0.0 mm
05:40 AM 58.7°F14.8°C 55.2°F12.9°C 88% Calm Calm -- 30.06 in1017.9 mb - 0.00 in0.0 mm 0.00 in0.0 mm
05:50 AM 58.7°F14.8°C 55.5°F13.1°C 89% Calm Calm -- 30.06 in1017.9 mb - 0.00 in0.0 mm 0.00 in0.0 mm
06:00 AM 58.6°F14.8°C 55.4°F13.0°C 89% Calm Calm -- 30.06 in1017.9 mb - 0.00 in0.0 mm 0.00 in0.0 mm
06:10 AM 58.6°F14.8°C 55.4°F13.0°C 89% Calm Calm -- 30.06 in1017.9 mb - 0.00 in0.0 mm 0.00 in0.0 mm
06:20 AM 58.5°F14.7°C 55.3°F12.9°C 89% Calm Calm -- 30.06 in1017.9 mb - 0.00 in0.0 mm 0.00 in0.0 mm
06:30 AM 58.5°F14.7°C 55.3°F12.9°C 89% Calm Calm 3.5 mph5.6 kmh 30.06 in1017.9 mb - 0.00 in0.0 mm 0.00 in0.0 mm
06:40 AM 59.9°F15.5°C 58.2°F14.6°C 94% Calm Calm -- 30.05 in1017.6 mb - 0.00 in0.0 mm 0.00 in0.0 mm
06:50 AM 60.6°F15.9°C 57.6°F14.2°C 90% Calm Calm -- 30.05 in1017.6 mb - 0.00 in0.0 mm 0.00 in0.0 mm
07:00 AM 60.0°F15.6°C 56.1°F13.4°C 87% Calm Calm -- 30.06 in1017.9 mb - 0.00 in0.0 mm 0.00 in0.0 mm
07:10 AM 59.8°F15.4°C 55.9°F13.3°C 87% Calm Calm -- 30.07 in1018.3 mb - 0.00 in0.0 mm 0.00 in0.0 mm
07:20 AM 59.3°F15.2°C 55.4°F13.0°C 87% Calm Calm -- 30.07 in1018.3 mb - 0.00 in0.0 mm 0.00 in0.0 mm
07:30 AM 58.9°F14.9°C 54.7°F12.6°C 86% Calm Calm -- 30.08 in1018.6 mb - 0.00 in0.0 mm 0.00 in0.0 mm
07:40 AM 58.7°F14.8°C 54.6°F12.6°C 86% Calm Calm -- 30.08 in1018.6 mb - 0.00 in0.0 mm 0.00 in0.0 mm
07:50 AM 58.6°F14.8°C 54.7°F12.6°C 87% Calm Calm -- 30.08 in1018.6 mb - 0.00 in0.0 mm 0.00 in0.0 mm
08:00 AM 58.4°F14.7°C 54.5°F12.5°C 87% Calm Calm -- 30.08 in1018.6 mb - 0.00 in0.0 mm 0.00 in0.0 mm
08:10 AM 58.9°F14.9°C 55.3°F12.9°C 88% Calm Calm -- 30.09 in1019.0 mb - 0.00 in0.0 mm 0.00 in0.0 mm
08:20 AM 60.0°F15.6°C 56.4°F13.6°C 88% Calm Calm -- 30.09 in1019.0 mb - 0.00 in0.0 mm 0.00 in0.0 mm
08:30 AM 62.1°F16.7°C 58.2°F14.6°C 87% Calm Calm -- 30.09 in1019.0 mb - 0.00 in0.0 mm 0.00 in0.0 mm
08:40 AM 64.0°F17.8°C 59.1°F15.1°C 84% Calm Calm -- 30.09 in1019.0 mb - 0.00 in0.0 mm 0.00 in0.0 mm
08:50 AM 65.5°F18.6°C 58.1°F14.5°C 77% Calm Calm -- 30.10 in1019.3 mb - 0.00 in0.0 mm 0.00 in0.0 mm
09:00 AM 66.7°F19.3°C 58.9°F14.9°C 76% Calm Calm -- 30.10 in1019.3 mb - 0.00 in0.0 mm 0.00 in0.0 mm
09:10 AM 67.6°F19.8°C 59.4°F15.2°C 75% Calm Calm -- 30.11 in1019.6 mb - 0.00 in0.0 mm 0.00 in0.0 mm
09:20 AM 68.5°F20.3°C 59.8°F15.4°C 74% Calm Calm -- 30.11 in1019.6 mb - 0.00 in0.0 mm 0.00 in0.0 mm
09:30 AM 69.0°F20.6°C 60.0°F15.6°C 73% Calm Calm -- 30.12 in1020.0 mb - 0.00 in0.0 mm 0.00 in0.0 mm
09:40 AM 69.7°F20.9°C 62.2°F16.8°C 77% 3.5 mph E5.6 kmh E 3.5 mph5.6 kmh 30.12 in1020.0 mb - 0.00 in0.0 mm 0.00 in0.0 mm
09:50 AM 70.3°F21.3°C 60.9°F16.1°C 72% 1.2 mph E1.9 kmh E 3.5 mph5.6 kmh 30.12 in1020.0 mb - 0.00 in0.0 mm 0.00 in0.0 mm
10:00 AM 71.1°F21.7°C 61.2°F16.2°C 71% Calm Calm -- 30.12 in1020.0 mb - 0.00 in0.0 mm 0.00 in0.0 mm
10:10 AM 71.7°F22.1°C 62.2°F16.8°C 72% Calm Calm -- 30.12 in1020.0 mb - 0.00 in0.0 mm 0.00 in0.0 mm
10:20 AM 72.4°F22.4°C 62.0°F16.7°C 70% Calm Calm -- 30.12 in1020.0 mb - 0.00 in0.0 mm 0.00 in0.0 mm
10:30 AM 73.3°F22.9°C 62.1°F16.7°C 68% Calm Calm -- 30.13 in1020.3 mb - 0.00 in0.0 mm 0.00 in0.0 mm
10:40 AM 73.9°F23.3°C 65.5°F18.6°C 75% 5.8 mph E9.3 kmh E 10.4 mph16.7 kmh 30.13 in1020.3 mb - 0.00 in0.0 mm 0.00 in0.0 mm
10:50 AM 73.8°F23.2°C 66.5°F19.2°C 78% 3.5 mph ENE5.6 kmh ENE 10.4 mph16.7 kmh 30.12 in1020.0 mb - 0.00 in0.0 mm 0.00 in0.0 mm
11:00 AM 73.7°F23.2°C 66.8°F19.3°C 79% 5.8 mph ENE9.3 kmh ENE 10.4 mph16.7 kmh 30.12 in1020.0 mb - 0.00 in0.0 mm 0.00 in0.0 mm
11:10 AM 73.7°F23.2°C 66.4°F19.1°C 78% 5.8 mph E9.3 kmh E 11.5 mph18.5 kmh 30.12 in1020.0 mb - 0.00 in0.0 mm 0.00 in0.0 mm
11:20 AM 74.0°F23.3°C 66.0°F18.9°C 76% 5.8 mph E9.3 kmh E 9.2 mph14.8 kmh 30.12 in1020.0 mb - 0.00 in0.0 mm 0.00 in0.0 mm
11:30 AM 73.6°F23.1°C 66.3°F19.1°C 78% 1.2 mph E1.9 kmh E 1.2 mph1.9 kmh 30.12 in1020.0 mb - 0.00 in0.0 mm 0.00 in0.0 mm
11:40 AM 73.0°F22.8°C 65.7°F18.7°C 78% 3.5 mph E5.6 kmh E 11.5 mph18.5 kmh 30.11 in1019.6 mb - 0.00 in0.0 mm 0.00 in0.0 mm
11:50 AM 72.7°F22.6°C 65.8°F18.8°C 79% 5.8 mph E9.3 kmh E 8.1 mph13.0 kmh 30.11 in1019.6 mb - 0.00 in0.0 mm 0.00 in0.0 mm
12:00 PM 72.2°F22.3°C 66.4°F19.1°C 82% Calm Calm -- 30.10 in1019.3 mb - 0.00 in0.0 mm 0.00 in0.0 mm
12:10 PM 72.9°F22.7°C 65.7°F18.7°C 78% 6.9 mph E11.1 kmh E 10.4 mph16.7 kmh 30.10 in1019.3 mb - 0.00 in0.0 mm 0.00 in0.0 mm
12:20 PM 72.5°F22.5°C 66.0°F18.9°C 80% 4.6 mph E7.4 kmh E 12.7 mph20.4 kmh 30.09 in1019.0 mb - 0.00 in0.0 mm 0.00 in0.0 mm
12:30 PM 72.0°F22.2°C 65.9°F18.8°C 81% 5.8 mph E9.3 kmh E 10.4 mph16.7 kmh 30.09 in1019.0 mb - 0.00 in0.0 mm 0.00 in0.0 mm
12:40 PM 72.1°F22.3°C 65.6°F18.7°C 80% 1.2 mph E1.9 kmh E 11.5 mph18.5 kmh 30.08 in1018.6 mb - 0.00 in0.0 mm 0.00 in0.0 mm
12:50 PM 73.3°F22.9°C 66.4°F19.1°C 79% 3.5 mph E5.6 kmh E 10.4 mph16.7 kmh 30.07 in1018.3 mb - 0.00 in0.0 mm 0.00 in0.0 mm
01:00 PM 73.7°F23.2°C 65.3°F18.5°C 75% 2.3 mph ESE3.7 kmh ESE 12.7 mph20.4 kmh 30.07 in1018.3 mb - 0.00 in0.0 mm 0.00 in0.0 mm
01:10 PM 74.0°F23.3°C 66.3°F19.1°C 77% 3.5 mph ENE5.6 kmh ENE 11.5 mph18.5 kmh 30.06 in1017.9 mb - 0.00 in0.0 mm 0.00 in0.0 mm
01:20 PM 72.7°F22.6°C 66.2°F19.0°C 80% 2.3 mph E3.7 kmh E 9.2 mph14.8 kmh 30.06 in1017.9 mb - 0.00 in0.0 mm 0.00 in0.0 mm
01:30 PM 72.0°F22.2°C 65.1°F18.4°C 79% 2.3 mph E3.7 kmh E 3.5 mph5.6 kmh 30.05 in1017.6 mb - 0.00 in0.0 mm 0.00 in0.0 mm
01:40 PM 73.0°F22.8°C 65.0°F18.3°C 76% Calm Calm -- 30.04 in1017.3 mb - 0.00 in0.0 mm 0.00 in0.0 mm
01:50 PM 73.3°F22.9°C 66.4°F19.1°C 79% 8.1 mph ENE13.0 kmh ENE 12.7 mph20.4 kmh 30.04 in1017.3 mb - 0.00 in0.0 mm 0.00 in0.0 mm
02:00 PM 71.3°F21.8°C 65.8°F18.8°C 83% 3.5 mph ENE5.6 kmh ENE 6.9 mph11.1 kmh 30.04 in1017.3 mb - 0.00 in0.0 mm 0.00 in0.0 mm
02:10 PM 70.3°F21.3°C 65.3°F18.5°C 84% 2.3 mph E3.7 kmh E 3.5 mph5.6 kmh 30.04 in1017.3 mb - 0.00 in0.0 mm 0.00 in0.0 mm
02:20 PM 69.7°F20.9°C 65.3°F18.5°C 86% 3.5 mph E5.6 kmh E 10.4 mph16.7 kmh 30.04 in1017.3 mb - 0.00 in0.0 mm 0.00 in0.0 mm
02:30 PM 68.7°F20.4°C 65.0°F18.3°C 88% 4.6 mph E7.4 kmh E 6.9 mph11.1 kmh 30.04 in1017.3 mb - 0.01 in0.3 mm 0.01 in0.3 mm
02:40 PM 68.7°F20.4°C 65.0°F18.3°C 88% 4.6 mph E7.4 kmh E 8.1 mph13.0 kmh 30.03 in1016.9 mb - 0.00 in0.0 mm 0.01 in0.3 mm
02:50 PM 69.3°F20.7°C 65.3°F18.5°C 87% 4.6 mph E7.4 kmh E 6.9 mph11.1 kmh 30.03 in1016.9 mb - 0.00 in0.0 mm 0.01 in0.3 mm
03:00 PM 69.9°F21.1°C 65.9°F18.8°C 87% 4.6 mph E7.4 kmh E 13.8 mph22.2 kmh 30.03 in1016.9 mb - 0.00 in0.0 mm 0.01 in0.3 mm
03:10 PM 70.4°F21.3°C 65.7°F18.7°C 85% 4.6 mph E7.4 kmh E 8.1 mph13.0 kmh 30.03 in1016.9 mb - 0.00 in0.0 mm 0.01 in0.3 mm
03:20 PM 71.2°F21.8°C 65.8°F18.8°C 83% 5.8 mph E9.3 kmh E 9.2 mph14.8 kmh 30.03 in1016.9 mb - 0.00 in0.0 mm 0.01 in0.3 mm
03:30 PM 72.1°F22.3°C 66.3°F19.1°C 82% 9.2 mph E14.8 kmh E 11.5 mph18.5 kmh 30.03 in1016.9 mb - 0.00 in0.0 mm 0.01 in0.3 mm
03:40 PM 72.2°F22.3°C 65.3°F18.5°C 79% 8.1 mph E13.0 kmh E 13.8 mph22.2 kmh 30.03 in1016.9 mb - 0.00 in0.0 mm 0.01 in0.3 mm
03:50 PM 71.8°F22.1°C 65.3°F18.5°C 80% 8.1 mph E13.0 kmh E 12.7 mph20.4 kmh 30.03 in1016.9 mb - 0.00 in0.0 mm 0.01 in0.3 mm
04:00 PM 71.1°F21.7°C 65.0°F18.3°C 81% 5.8 mph ENE9.3 kmh ENE 11.5 mph18.5 kmh 30.03 in1016.9 mb - 0.00 in0.0 mm 0.01 in0.3 mm
04:10 PM 70.2°F21.2°C 65.1°F18.4°C 84% 3.5 mph E5.6 kmh E 3.5 mph5.6 kmh 30.03 in1016.9 mb - 0.00 in0.0 mm 0.01 in0.3 mm
04:20 PM 69.7°F20.9°C 64.6°F18.1°C 84% 1.2 mph ESE1.9 kmh ESE 9.2 mph14.8 kmh 30.03 in1016.9 mb - 0.00 in0.0 mm 0.01 in0.3 mm
04:30 PM 69.3°F20.7°C 64.6°F18.1°C 85% 2.3 mph E3.7 kmh E 10.4 mph16.7 kmh 30.04 in1017.3 mb - 0.00 in0.0 mm 0.01 in0.3 mm
04:40 PM 69.4°F20.8°C 64.7°F18.2°C 85% 5.8 mph E9.3 kmh E 12.7 mph20.4 kmh 30.03 in1016.9 mb - 0.00 in0.0 mm 0.01 in0.3 mm
04:50 PM 70.0°F21.1°C 64.9°F18.3°C 84% 3.5 mph ESE5.6 kmh ESE 10.4 mph16.7 kmh 30.04 in1017.3 mb - 0.00 in0.0 mm 0.01 in0.3 mm
05:00 PM 70.5°F21.4°C 64.8°F18.2°C 82% 4.6 mph E7.4 kmh E 6.9 mph11.1 kmh 30.04 in1017.3 mb - 0.00 in0.0 mm 0.01 in0.3 mm
05:10 PM 70.7°F21.5°C 65.0°F18.3°C 82% Calm Calm 3.5 mph5.6 kmh 30.04 in1017.3 mb - 0.00 in0.0 mm 0.01 in0.3 mm
05:20 PM 69.9°F21.1°C 64.8°F18.2°C 84% 3.5 mph ESE5.6 kmh ESE 5.8 mph9.3 kmh 30.04 in1017.3 mb - 0.00 in0.0 mm 0.01 in0.3 mm
05:30 PM 69.2°F20.7°C 64.5°F18.1°C 85% 1.2 mph E1.9 kmh E 2.3 mph3.7 kmh 30.04 in1017.3 mb - 0.00 in0.0 mm 0.01 in0.3 mm
05:40 PM 68.7°F20.4°C 64.0°F17.8°C 85% 2.3 mph E3.7 kmh E 8.1 mph13.0 kmh 30.04 in1017.3 mb - 0.00 in0.0 mm 0.01 in0.3 mm
05:50 PM 68.5°F20.3°C 63.8°F17.7°C 85% 10.4 mph E16.7 kmh E 11.5 mph18.5 kmh 30.03 in1016.9 mb - 0.00 in0.0 mm 0.01 in0.3 mm
06:00 PM 68.7°F20.4°C 64.0°F17.8°C 85% Calm Calm -- 30.04 in1017.3 mb - 0.00 in0.0 mm 0.01 in0.3 mm
06:10 PM 69.0°F20.6°C 63.6°F17.6°C 83% 4.6 mph E7.4 kmh E 11.5 mph18.5 kmh 30.04 in1017.3 mb - 0.00 in0.0 mm 0.01 in0.3 mm
06:20 PM 68.9°F20.5°C 63.5°F17.5°C 83% 2.3 mph E3.7 kmh E 8.1 mph13.0 kmh 30.04 in1017.3 mb - 0.00 in0.0 mm 0.01 in0.3 mm
06:30 PM 68.2°F20.1°C 63.9°F17.7°C 86% 2.3 mph ENE3.7 kmh ENE -- 30.04 in1017.3 mb - 0.00 in0.0 mm 0.01 in0.3 mm
06:40 PM 67.5°F19.7°C 63.2°F17.3°C 86% 5.8 mph ESE9.3 kmh ESE 6.9 mph11.1 kmh 30.04 in1017.3 mb - 0.00 in0.0 mm 0.01 in0.3 mm
06:50 PM 67.5°F19.7°C 63.5°F17.5°C 87% Calm Calm -- 30.05 in1017.6 mb - 0.00 in0.0 mm 0.01 in0.3 mm
07:00 PM 67.4°F19.7°C 63.1°F17.3°C 86% Calm Calm -- 30.05 in1017.6 mb - 0.00 in0.0 mm 0.01 in0.3 mm
07:10 PM 67.4°F19.7°C 63.1°F17.3°C 86% 1.2 mph E1.9 kmh E 4.6 mph7.4 kmh 30.05 in1017.6 mb - 0.00 in0.0 mm 0.01 in0.3 mm
07:20 PM 67.5°F19.7°C 62.8°F17.1°C 85% Calm Calm -- 30.05 in1017.6 mb - 0.00 in0.0 mm 0.01 in0.3 mm
07:30 PM 67.4°F19.7°C 62.7°F17.1°C 85% Calm Calm -- 30.05 in1017.6 mb - 0.00 in0.0 mm 0.01 in0.3 mm
07:40 PM 67.0°F19.4°C 62.6°F17.0°C 86% Calm Calm -- 30.05 in1017.6 mb - 0.00 in0.0 mm 0.01 in0.3 mm
07:50 PM 66.5°F19.2°C 62.2°F16.8°C 86% Calm Calm -- 30.05 in1017.6 mb - 0.00 in0.0 mm 0.01 in0.3 mm
08:00 PM 66.1°F18.9°C 62.1°F16.7°C 87% Calm Calm 3.5 mph5.6 kmh 30.06 in1017.9 mb - 0.00 in0.0 mm 0.01 in0.3 mm
08:10 PM 65.8°F18.8°C 61.8°F16.6°C 87% Calm Calm -- 30.06 in1017.9 mb - 0.00 in0.0 mm 0.01 in0.3 mm
08:20 PM 65.4°F18.6°C 61.5°F16.4°C 87% Calm Calm -- 30.06 in1017.9 mb - 0.00 in0.0 mm 0.01 in0.3 mm
08:30 PM 65.6°F18.7°C 62.3°F16.8°C 89% 1.2 mph E1.9 kmh E 3.5 mph5.6 kmh 30.06 in1017.9 mb - 0.00 in0.0 mm 0.01 in0.3 mm
08:40 PM 66.1°F18.9°C 62.8°F17.1°C 89% Calm Calm 3.5 mph5.6 kmh 30.07 in1018.3 mb - 0.00 in0.0 mm 0.01 in0.3 mm
08:50 PM 66.1°F18.9°C 62.4°F16.9°C 88% Calm Calm 3.5 mph5.6 kmh 30.07 in1018.3 mb - 0.00 in0.0 mm 0.01 in0.3 mm
09:00 PM 65.7°F18.7°C 62.1°F16.7°C 88% Calm Calm -- 30.07 in1018.3 mb - 0.00 in0.0 mm 0.01 in0.3 mm
09:10 PM 65.0°F18.3°C 61.0°F16.1°C 87% Calm Calm -- 30.07 in1018.3 mb - 0.00 in0.0 mm 0.01 in0.3 mm
09:20 PM 64.3°F17.9°C 60.7°F15.9°C 88% Calm Calm -- 30.07 in1018.3 mb - 0.00 in0.0 mm 0.01 in0.3 mm
09:30 PM 63.9°F17.7°C 60.3°F15.7°C 88% Calm Calm -- 30.07 in1018.3 mb - 0.00 in0.0 mm 0.01 in0.3 mm
09:40 PM 63.7°F17.6°C 60.1°F15.6°C 88% 1.2 mph E1.9 kmh E 8.1 mph13.0 kmh 30.07 in1018.3 mb - 0.00 in0.0 mm 0.01 in0.3 mm
09:50 PM 63.7°F17.6°C 60.1°F15.6°C 88% Calm Calm -- 30.07 in1018.3 mb - 0.00 in0.0 mm 0.01 in0.3 mm
10:00 PM 63.6°F17.6°C 59.7°F15.4°C 87% Calm Calm -- 30.07 in1018.3 mb - 0.00 in0.0 mm 0.01 in0.3 mm
10:10 PM 63.3°F17.4°C 59.7°F15.4°C 88% Calm Calm -- 30.08 in1018.6 mb - 0.00 in0.0 mm 0.01 in0.3 mm
10:20 PM 63.1°F17.3°C 59.5°F15.3°C 88% Calm Calm -- 30.07 in1018.3 mb - 0.00 in0.0 mm 0.01 in0.3 mm
10:30 PM 62.9°F17.2°C 59.6°F15.3°C 89% Calm Calm -- 30.07 in1018.3 mb - 0.00 in0.0 mm 0.01 in0.3 mm
10:40 PM 62.8°F17.1°C 59.5°F15.3°C 89% Calm Calm -- 30.07 in1018.3 mb - 0.00 in0.0 mm 0.01 in0.3 mm
10:50 PM 62.7°F17.1°C 59.7°F15.4°C 90% Calm Calm -- 30.07 in1018.3 mb - 0.00 in0.0 mm 0.01 in0.3 mm
11:00 PM 63.1°F17.3°C 60.4°F15.8°C 91% Calm Calm -- 30.07 in1018.3 mb - 0.00 in0.0 mm 0.01 in0.3 mm
11:10 PM 63.4°F17.4°C 60.4°F15.8°C 90% Calm Calm -- 30.06 in1017.9 mb - 0.00 in0.0 mm 0.01 in0.3 mm
11:20 PM 63.2°F17.3°C 59.9°F15.5°C 89% Calm Calm -- 30.06 in1017.9 mb - 0.00 in0.0 mm 0.01 in0.3 mm
11:30 PM 62.7°F17.1°C 59.4°F15.2°C 89% Calm Calm -- 30.07 in1018.3 mb - 0.00 in0.0 mm 0.01 in0.3 mm
11:40 PM 62.2°F16.8°C 58.9°F14.9°C 89% Calm Calm -- 30.06 in1017.9 mb - 0.00 in0.0 mm 0.01 in0.3 mm
11:50 PM 61.7°F16.5°C 58.7°F14.8°C 90% Calm Calm -- 30.06 in1017.9 mb - 0.00 in0.0 mm 0.01 in0.3 mm